Time;durP1;ratioP1;P1;durP2;ratioP2;P2;SDS_P1;SDS_P2;PMS_P1;PMS_P2;Temp;Humidity;BMP_temperature;BMP_pressure;BME280_temperature;BME280_humidity;BME280_pressure;Samples;Min_cycle;Max_cycle;Signal;HPM_P1;HPM_P2
2022/06/20 00:00:17;;;;;;;6.18;3.85;;;19.40;99.90;;;-141.84;64.74;19862.63;5071644;28;20228;-59
2022/06/20 00:02:49;;;;;;;7.53;4.10;;;19.40;99.90;;;-141.84;66.19;19791.47;5051889;28;20207;-59
2022/06/20 00:05:23;;;;;;;5.78;3.35;;;19.20;99.90;;;-141.84;66.06;19824.00;5051944;28;20185;-59
2022/06/20 00:07:52;;;;;;;9.35;4.13;;;19.30;99.90;;;-141.84;65.80;19789.44;5051181;28;20720;-60
2022/06/20 00:10:24;;;;;;;6.85;3.83;;;19.30;99.90;;;-141.84;65.25;19809.78;5051155;28;20225;-61
2022/06/20 00:12:54;;;;;;;7.10;3.67;;;19.30;99.90;;;-141.84;65.96;19805.72;5052475;28;20252;-60
2022/06/20 00:15:26;;;;;;;8.80;3.92;;;19.30;99.90;;;-141.84;65.91;19803.69;5052631;28;20313;-60
2022/06/20 00:17:56;;;;;;;10.65;4.03;;;19.30;99.90;;;-141.84;66.28;19805.72;5052463;28;20252;-63
2022/06/20 00:20:26;;;;;;;10.38;4.07;;;19.30;99.90;;;-141.84;66.02;19811.81;5052673;28;20221;-60
2022/06/20 00:22:56;;;;;;;9.38;4.18;;;19.30;99.90;;;-141.84;66.52;19793.50;5052195;28;20656;-60
2022/06/20 00:25:25;;;;;;;7.10;4.13;;;19.20;99.90;;;-141.84;66.26;19811.81;5067215;28;20315;-59
2022/06/20 00:27:55;;;;;;;8.73;4.45;;;19.20;99.90;;;-141.84;65.93;19795.53;5072219;28;20410;-59
2022/06/20 00:30:24;;;;;;;8.73;3.95;;;19.30;99.90;;;-141.84;65.81;19830.09;5072736;28;20235;-59
2022/06/20 00:32:52;;;;;;;9.88;4.57;;;19.30;99.90;;;-141.84;65.42;19813.84;5072529;28;20200;-60
2022/06/20 00:35:21;;;;;;;9.02;4.00;;;19.30;99.90;;;-141.84;65.93;19813.84;5072029;28;20208;-60
2022/06/20 00:37:58;;;;;;;6.90;4.20;;;19.40;99.90;;;-141.84;65.86;19815.88;5071354;28;20315;-58
2022/06/20 00:40:36;;;;;;;8.25;4.45;;;19.40;99.90;;;-141.84;64.88;19844.31;5052018;28;20229;-60
2022/06/20 00:43:10;;;;;;;8.65;4.65;;;19.50;99.90;;;-141.84;64.98;19842.28;5052115;28;20248;-59
2022/06/20 00:45:45;;;;;;;10.50;4.80;;;19.50;99.90;;;-141.84;63.78;19897.16;5052101;28;20231;-59
2022/06/20 00:48:23;;;;;;;9.60;4.47;;;19.70;99.90;;;-141.84;62.94;19962.19;5052412;28;20243;-59
2022/06/20 00:50:57;;;;;;;7.40;4.25;;;19.80;99.90;;;-141.84;63.78;19878.88;5052281;28;20177;-59
2022/06/20 00:53:35;;;;;;;8.70;4.20;;;19.80;99.90;;;-141.84;64.51;19874.81;5052581;28;20272;-61
2022/06/20 00:56:14;;;;;;;7.32;4.10;;;19.70;99.90;;;-141.84;64.43;19897.16;5052182;28;20722;-60
2022/06/20 00:58:50;;;;;;;5.50;3.58;;;19.70;99.90;;;-141.84;65.00;19840.25;5052465;28;20714;-59
2022/06/20 01:01:35;;;;;;;10.10;4.32;;;19.70;99.90;;;-141.84;65.58;19870.75;5051521;28;20239;-60
2022/06/20 01:04:11;;;;;;;11.43;4.82;;;19.70;99.90;;;-141.84;67.33;19821.97;5051983;28;20229;-59
2022/06/20 01:06:49;;;;;;;8.02;4.55;;;19.60;99.90;;;-141.84;68.45;19815.88;5051661;28;20227;-59
2022/06/20 01:09:23;;;;;;;8.80;5.07;;;19.50;99.90;;;-141.84;69.47;19765.06;5051621;28;20296;-60
2022/06/20 01:11:57;;;;;;;11.55;6.05;;;19.50;99.90;;;-141.84;71.04;19716.28;5051031;28;20212;-59
2022/06/20 01:14:33;;;;;;;12.52;5.93;;;19.30;99.90;;;-141.84;72.01;19651.25;5052114;28;20541;-59
2022/06/20 01:17:06;;;;;;;9.13;5.55;;;19.10;99.90;;;-141.84;72.95;19673.59;5051489;28;20224;-59
2022/06/20 01:19:51;;;;;;;10.40;5.50;;;19.00;99.90;;;-141.84;73.33;19618.75;5051412;28;20221;-59
2022/06/20 01:22:41;;;;;;;8.05;4.75;;;18.90;99.90;;;-141.84;74.22;19580.13;5051331;28;20220;-61
2022/06/20 01:25:33;;;;;;;10.63;5.15;;;18.70;99.90;;;-141.84;75.30;19598.41;5063851;28;20268;-59
2022/06/20 01:28:08;;;;;;;10.80;5.53;;;18.70;99.90;;;-141.84;74.99;19612.63;5070942;28;20224;-60
2022/06/20 01:30:43;;;;;;;7.50;5.20;;;18.70;99.90;;;-141.84;75.21;19586.22;5071150;28;20234;-59
2022/06/20 01:33:14;;;;;;;10.18;5.28;;;18.60;99.90;;;-141.84;76.00;19600.44;5071210;28;20230;-60
2022/06/20 01:38:30;;;;;;;9.70;4.90;;;18.60;99.90;;;-141.84;75.75;19565.91;5065310;28;20653;-60
2022/06/20 01:43:53;;;;;;;12.25;4.63;;;18.60;99.90;;;-141.84;76.72;19531.34;5053816;28;20229;-60
2022/06/20 01:46:27;;;;;;;11.35;5.00;;;18.50;99.90;;;-141.84;77.11;19529.31;5049583;28;20229;-60
2022/06/20 01:49:00;;;;;;;8.60;4.82;;;18.50;99.90;;;-141.84;77.88;19529.31;5049933;28;20261;-59
2022/06/20 01:51:41;;;;;;;10.40;4.97;;;18.40;99.90;;;-141.84;78.93;19500.88;5049357;28;20316;-60
2022/06/20 01:54:14;;;;;;;13.00;5.20;;;18.40;99.90;;;-141.84;78.32;19545.56;5060913;28;20228;-59
2022/06/20 01:56:47;;;;;;;12.15;5.82;;;18.40;99.90;;;-141.84;77.62;19531.34;5069361;28;20181;-59
2022/06/20 01:59:22;;;;;;;11.38;5.55;;;18.40;99.90;;;-141.84;77.47;19509.00;5070348;28;20187;-59
2022/06/20 02:01:53;;;;;;;10.60;5.72;;;18.50;99.90;;;-141.84;77.44;19531.34;5069384;28;20490;-58
2022/06/20 02:04:28;;;;;;;13.27;5.80;;;18.40;99.90;;;-141.84;78.36;19506.97;5069467;28;20236;-59
2022/06/20 02:06:56;;;;;;;11.13;6.72;;;18.30;99.90;;;-141.84;78.64;19484.59;5069629;28;20319;-59
2022/06/20 02:09:26;;;;;;;12.60;6.60;;;18.30;99.90;;;-141.84;78.60;19504.94;5069510;28;20308;-59
2022/06/20 02:11:54;;;;;;;12.27;6.20;;;18.30;99.90;;;-141.84;78.67;19480.53;5069092;28;20232;-61
2022/06/20 02:14:33;;;;;;;10.95;6.20;;;18.30;99.90;;;-141.84;79.12;19454.13;5070006;28;20200;-61
2022/06/20 02:17:06;;;;;;;13.40;6.15;;;18.30;99.90;;;-141.84;79.40;19448.03;5069790;28;20239;-60
2022/06/20 02:19:43;;;;;;;10.07;5.95;;;18.10;99.90;;;-141.84;79.77;19460.22;5069401;28;20235;-59
2022/06/20 02:22:14;;;;;;;12.13;5.45;;;18.10;99.90;;;-141.84;79.80;19466.31;5068983;28;20643;-61
2022/06/20 02:24:48;;;;;;;11.13;5.72;;;18.10;99.90;;;-141.84;79.59;19460.22;5069199;28;20307;-59
2022/06/20 02:27:23;;;;;;;10.02;5.60;;;18.20;99.90;;;-141.84;79.39;19452.09;5069143;28;20224;-60
2022/06/20 02:29:54;;;;;;;11.30;6.07;;;18.20;99.90;;;-141.84;79.47;19492.75;5069449;28;20184;-59
2022/06/20 02:32:28;;;;;;;12.60;5.60;;;18.20;99.90;;;-141.84;79.52;19446.00;5069502;28;20205;-60
2022/06/20 02:34:56;;;;;;;10.50;5.50;;;18.20;99.90;;;-141.84;80.97;19405.34;5069107;28;20307;-60
2022/06/20 02:37:27;;;;;;;11.25;5.85;;;18.10;99.90;;;-141.84;79.90;19435.84;5068892;28;20802;-60
2022/06/20 02:39:59;;;;;;;9.95;5.85;;;18.10;99.90;;;-141.84;79.28;19423.66;5051036;28;20606;-60
2022/06/20 02:42:36;;;;;;;11.48;6.28;;;18.10;99.90;;;-141.84;79.84;19425.69;5049092;28;20228;-60
2022/06/20 02:45:11;;;;;;;11.98;5.40;;;18.00;99.90;;;-141.84;80.30;19423.66;5049336;28;20229;-59
2022/06/20 02:47:43;;;;;;;9.40;5.78;;;17.90;99.90;;;-141.84;79.47;19415.50;5048965;28;20178;-58
2022/06/20 02:50:14;;;;;;;12.00;7.03;;;18.00;99.90;;;-141.84;78.52;19456.16;5059096;28;20288;-60
2022/06/20 02:52:51;;;;;;;14.30;8.20;;;17.90;99.90;;;-141.84;78.52;19446.00;5068727;28;20618;-60
2022/06/20 02:55:22;;;;;;;10.95;7.72;;;17.90;99.90;;;-141.84;77.71;19433.81;5068953;28;20235;-60
2022/06/20 02:57:57;;;;;;;11.70;7.35;;;17.90;99.90;;;-141.84;79.01;19419.59;5070693;28;20235;-60
2022/06/20 03:00:36;;;;;;;10.43;6.97;;;17.80;99.90;;;-141.84;79.65;19411.44;5072875;28;20643;-59
2022/06/20 03:03:13;;;;;;;12.52;7.18;;;17.80;99.90;;;-141.84;79.44;19403.31;5072666;28;20292;-60
2022/06/20 03:05:42;;;;;;;11.15;6.95;;;17.70;99.90;;;-141.84;80.22;19409.41;5072685;28;20410;-60
2022/06/20 03:08:16;;;;;;;12.98;7.57;;;17.60;99.90;;;-141.84;79.96;19393.16;5072867;28;20207;-60
2022/06/20 03:10:50;;;;;;;11.75;7.13;;;17.60;99.90;;;-141.84;80.21;19378.94;5072594;28;20226;-60
2022/06/20 03:13:20;;;;;;;10.95;6.38;;;17.60;99.90;;;-141.84;80.41;19387.06;5072529;28;20651;-59
2022/06/20 03:15:51;;;;;;;11.80;6.78;;;17.60;99.90;;;-141.84;81.09;19364.72;5071321;28;20489;-59
2022/06/20 03:18:23;;;;;;;12.85;7.43;;;17.60;99.90;;;-141.84;81.05;19348.47;5072117;28;20311;-59
2022/06/20 03:20:51;;;;;;;12.68;6.90;;;17.60;99.90;;;-141.84;82.03;19317.97;5072263;28;20351;-59
2022/06/20 03:23:26;;;;;;;11.52;7.07;;;17.50;99.90;;;-141.84;81.75;19356.59;5072354;28;20291;-59
2022/06/20 03:25:58;;;;;;;10.25;6.90;;;17.60;99.90;;;-141.84;81.76;19372.84;5072162;28;20228;-60
2022/06/20 03:28:31;;;;;;;11.77;6.93;;;17.70;99.90;;;-141.84;80.87;19356.59;5071939;28;20255;-60
2022/06/20 03:31:06;;;;;;;11.57;6.95;;;17.70;99.90;;;-141.84;80.92;19395.19;5072189;28;20224;-60
2022/06/20 03:33:35;;;;;;;13.40;7.40;;;17.70;99.90;;;-141.84;81.29;19383.00;5072282;28;20579;-59
2022/06/20 03:36:10;;;;;;;9.80;6.43;;;17.70;99.90;;;-141.84;80.76;19391.13;5072122;28;20307;-60
2022/06/20 03:38:41;;;;;;;11.07;6.55;;;17.80;99.90;;;-141.84;80.58;19393.16;5064391;28;20637;-59
2022/06/20 03:41:13;;;;;;;11.25;6.93;;;17.80;99.90;;;-141.84;80.91;19374.88;5051991;28;20273;-60
2022/06/20 03:43:49;;;;;;;10.98;6.25;;;17.80;99.90;;;-141.84;82.22;19352.53;5052017;28;20236;-60
2022/06/20 03:46:26;;;;;;;12.52;7.20;;;17.80;99.90;;;-141.84;82.00;19397.22;5060196;28;20255;-61
2022/06/20 03:49:04;;;;;;;11.20;6.63;;;17.80;99.90;;;-141.84;81.01;19403.31;5071757;28;20608;-61
2022/06/20 03:51:39;;;;;;;10.55;6.50;;;17.80;99.90;;;-141.84;79.74;19383.00;5072081;28;20602;-59
2022/06/20 03:54:15;;;;;;;9.77;6.60;;;17.80;99.90;;;-141.84;79.54;19374.88;5071492;28;20647;-59
2022/06/20 03:56:57;;;;;;;10.75;6.40;;;17.90;99.90;;;-141.84;79.68;19380.97;5071907;28;20208;-60
2022/06/20 03:59:35;;;;;;;12.32;6.50;;;17.90;99.90;;;-141.84;79.72;19421.63;5071820;28;20276;-58
2022/06/20 04:02:17;;;;;;;12.02;6.13;;;17.90;99.90;;;-141.84;78.63;19413.47;5071992;28;20599;-59
2022/06/20 04:04:53;;;;;;;10.27;6.05;;;18.00;99.90;;;-141.84;78.25;19450.06;5071743;28;20236;-59
2022/06/20 04:07:29;;;;;;;9.07;5.75;;;18.10;99.90;;;-141.84;76.51;19480.53;5071840;28;20228;-59
2022/06/20 04:12:58;;;;;;;11.32;6.10;;;18.50;99.90;;;-141.84;74.14;19533.38;5071229;28;20228;-60
2022/06/20 04:15:35;;;;;;;7.80;5.60;;;18.50;99.90;;;-141.84;74.70;19539.47;5071576;28;20248;-60
2022/06/20 04:18:28;;;;;;;8.18;5.78;;;18.60;99.90;;;-141.84;74.47;19513.06;5071523;28;20235;-60
2022/06/20 04:21:12;;;;;;;8.50;5.47;;;18.60;99.90;;;-141.84;74.26;19529.31;5071417;28;20297;-59
2022/06/20 04:23:48;;;;;;;11.73;5.85;;;18.70;99.90;;;-141.84;72.70;19608.56;5071226;28;20276;-61
2022/06/20 04:26:22;;;;;;;8.48;5.53;;;18.80;99.90;;;-141.84;71.62;19624.84;5072072;28;20192;-59
2022/06/20 04:28:57;;;;;;;9.10;5.75;;;19.00;99.90;;;-141.84;71.41;19618.75;5070999;28;20223;-60
2022/06/20 04:31:42;;;;;;;7.40;5.70;;;19.00;99.90;;;-141.84;71.94;19582.16;5070964;28;20782;-60
2022/06/20 04:34:20;;;;;;;9.43;5.85;;;18.90;99.90;;;-141.84;71.06;19626.88;5070914;28;20228;-60
2022/06/20 04:36:56;;;;;;;7.45;5.38;;;19.00;99.90;;;-141.84;71.09;19614.66;5071196;28;20300;-60
2022/06/20 04:39:37;;;;;;;6.43;5.30;;;19.10;99.90;;;-141.84;71.25;19612.63;5057137;28;20271;-60
2022/06/20 04:42:18;;;;;;;7.72;5.00;;;19.00;99.90;;;-141.84;70.22;19653.28;5051334;28;20336;-59
2022/06/20 04:44:57;;;;;;;7.00;5.03;;;19.10;99.90;;;-141.84;70.20;19635.00;5050607;28;20279;-59
2022/06/20 04:47:40;;;;;;;8.52;5.45;;;19.10;99.90;;;-141.84;70.18;19643.13;5051369;28;20284;-60
2022/06/20 04:50:19;;;;;;;8.90;5.18;;;19.10;99.90;;;-141.84;69.91;19647.19;5050711;28;20217;-59
2022/06/20 04:52:51;;;;;;;7.68;4.45;;;18.90;99.90;;;-141.84;70.34;19616.72;5050438;28;20221;-60
2022/06/20 04:55:24;;;;;;;13.32;5.63;;;18.90;99.90;;;-141.84;68.52;19687.84;5064879;28;20224;-61
2022/06/20 04:57:55;;;;;;;8.13;4.18;;;19.10;99.90;;;-141.84;69.29;19641.09;5070543;28;20343;-60
2022/06/20 05:00:28;;;;;;;6.60;4.50;;;19.00;99.90;;;-141.84;70.57;19655.31;5070238;28;20811;-60
2022/06/20 05:02:58;;;;;;;9.20;5.15;;;18.90;99.90;;;-141.84;70.15;19651.25;5070406;28;20236;-59
2022/06/20 05:05:36;;;;;;;9.82;5.22;;;18.90;99.90;;;-141.84;71.68;19630.94;5070681;28;20679;-59
2022/06/20 05:08:12;;;;;;;11.25;7.10;;;18.80;99.90;;;-141.84;73.89;19533.38;5070610;28;20208;-60
2022/06/20 05:10:46;;;;;;;23.70;12.38;;;18.60;99.90;;;-141.84;81.68;19387.06;5070169;28;20225;-60
2022/06/20 05:13:22;;;;;;;16.48;13.10;;;18.30;99.90;;;-141.84;87.53;19226.53;5070054;28;20267;-60
2022/06/20 05:15:53;;;;;;;18.73;12.98;;;17.70;99.90;;;-141.84;90.75;19163.53;5069437;28;20224;-60
2022/06/20 05:18:30;;;;;;;16.58;12.27;;;17.20;99.90;;;-141.84;93.99;19129.00;5055303;28;20229;-60
2022/06/20 05:21:08;;;;;;;12.82;11.52;;;16.90;99.90;;;-141.84;95.76;19039.59;5050330;28;20653;-61
2022/06/20 05:23:42;;;;;;;12.18;10.80;;;16.60;99.90;;;-141.84;97.33;18998.94;5050852;28;20205;-61
2022/06/20 05:26:16;;;;;;;12.43;10.52;;;16.40;99.90;;;-141.84;98.94;18964.41;5051141;28;20185;-61
2022/06/20 05:28:49;;;;;;;11.43;10.20;;;16.30;99.90;;;-141.84;98.71;18931.91;5050477;28;20319;-60
2022/06/20 05:31:25;;;;;;;11.20;9.40;;;16.20;99.90;;;-141.84;99.50;18905.47;5050508;28;20225;-61
2022/06/20 05:34:00;;;;;;;11.03;9.73;;;16.10;99.90;;;-141.84;99.34;18864.84;5050308;28;20228;-60
2022/06/20 05:36:43;;;;;;;11.40;9.67;;;16.00;99.90;;;-141.84;99.21;18929.88;5050684;28;20311;-60
2022/06/20 05:39:22;;;;;;;13.23;10.27;;;15.90;99.90;;;-141.84;99.43;18911.56;5050945;28;20432;-60
2022/06/20 05:41:50;;;;;;;11.15;9.40;;;16.00;99.90;;;-141.84;99.27;18895.31;5050369;28;20181;-62
2022/06/20 05:44:18;;;;;;;13.90;9.30;;;15.90;99.90;;;-141.84;99.97;18864.84;5051149;28;20334;-60
2022/06/20 05:46:54;;;;;;;9.23;8.32;;;16.00;99.90;;;-141.84;99.23;18893.28;5050363;28;20278;-60
2022/06/20 05:49:31;;;;;;;8.73;7.90;;;16.00;99.90;;;-141.84;100.00;18858.75;5050325;28;20224;-60
2022/06/20 05:52:05;;;;;;;8.68;7.93;;;16.00;99.90;;;-141.84;100.00;18850.63;5050333;28;20711;-61
2022/06/20 05:54:40;;;;;;;9.00;7.97;;;16.10;99.90;;;-141.84;100.00;18818.09;5057973;28;20238;-61
2022/06/20 05:57:15;;;;;;;8.40;7.60;;;16.10;99.90;;;-141.84;100.00;18818.09;5068939;28;20223;-61
2022/06/20 05:59:49;;;;;;;8.40;7.60;;;16.20;99.90;;;-141.84;100.00;18803.88;5067905;28;20284;-61
2022/06/20 06:02:25;;;;;;;9.73;8.13;;;16.20;99.90;;;-141.84;99.82;18751.06;5068808;28;20215;-60
2022/06/20 06:05:08;;;;;;;9.32;8.40;;;16.10;99.90;;;-141.84;100.00;18730.75;5068460;28;20231;-61
2022/06/20 06:07:45;;;;;;;11.13;9.00;;;16.20;99.90;;;-141.84;100.00;18610.88;5068449;28;20270;-61
2022/06/20 06:10:32;;;;;;;11.20;9.15;;;16.20;99.90;;;-141.84;100.00;18568.19;5068428;28;20776;-60
2022/06/20 06:13:14;;;;;;;11.00;9.10;;;16.20;99.90;;;-141.84;100.00;18505.22;5068527;28;20220;-61
2022/06/20 06:18:51;;;;;;;14.70;10.50;;;16.20;99.90;;;-141.84;100.00;17548.41;5070007;28;20243;-60
2022/06/20 06:21:20;;;;;;;11.18;9.98;;;16.20;99.90;;;-141.84;100.00;17570.75;5069772;28;20627;-61
2022/06/20 06:23:50;;;;;;;13.23;10.15;;;16.30;99.90;;;-141.84;100.00;17615.44;5069752;28;20576;-60
2022/06/20 06:26:19;;;;;;;11.43;10.20;;;16.30;99.90;;;-141.84;100.00;17584.97;5070366;28;20298;-60
2022/06/20 06:28:51;;;;;;;12.65;11.35;;;16.30;99.90;;;-141.84;100.00;17578.88;5069806;28;20224;-60
2022/06/20 06:31:25;;;;;;;11.63;10.45;;;16.40;99.90;;;-141.84;100.00;17601.22;5069823;28;20311;-60
2022/06/20 06:34:01;;;;;;;12.35;11.05;;;16.30;99.90;;;-141.84;100.00;17599.19;5073709;28;20234;-61
2022/06/20 06:36:37;;;;;;;13.70;10.85;;;16.30;99.90;;;-141.84;100.00;17530.13;5053954;28;20253;-60
2022/06/20 06:39:18;;;;;;;11.07;9.98;;;16.40;99.90;;;-141.84;100.00;17615.44;5053970;28;20228;-60
2022/06/20 06:41:50;;;;;;;9.68;8.25;;;16.50;99.90;;;-141.84;98.29;17721.06;5053896;28;20280;-63
2022/06/20 06:44:30;;;;;;;20.20;9.35;;;16.50;99.90;;;-141.84;96.80;17792.16;5054393;28;20206;-61
2022/06/20 06:47:00;;;;;;;9.18;8.25;;;16.50;99.90;;;-141.84;97.83;17686.53;5053752;28;20245;-59
2022/06/20 06:49:37;;;;;;;10.95;8.88;;;16.40;99.90;;;-141.84;96.69;17749.50;5053739;28;20312;-60
2022/06/20 06:52:12;;;;;;;10.50;8.27;;;16.30;99.90;;;-141.84;97.10;17755.59;5053771;28;20320;-59
2022/06/20 06:54:56;;;;;;;10.15;9.15;;;16.40;99.90;;;-141.84;94.93;17928.28;5062508;28;20315;-61
2022/06/20 06:57:34;;;;;;;11.00;9.25;;;16.60;99.90;;;-141.84;94.17;18037.97;5073709;28;20230;-61
2022/06/20 07:00:26;;;;;;;11.80;9.30;;;16.70;99.90;;;-141.84;94.66;18029.84;5073742;28;20559;-59
2022/06/20 07:02:59;;;;;;;9.80;8.77;;;17.00;99.90;;;-141.84;91.47;18356.91;5073691;28;20228;-63
2022/06/20 07:05:35;;;;;;;12.20;9.10;;;17.20;99.90;;;-141.84;90.12;18501.16;5074120;28;20224;-61
2022/06/20 07:08:12;;;;;;;9.90;8.73;;;17.30;99.90;;;-141.84;88.53;18623.06;5073698;28;20261;-59
2022/06/20 07:10:52;;;;;;;11.18;8.20;;;17.30;99.90;;;-141.84;88.36;18655.56;5073479;28;20239;-61
2022/06/20 07:13:33;;;;;;;11.93;8.73;;;17.30;99.90;;;-141.84;90.89;18513.34;5073360;28;20273;-60
2022/06/20 07:16:10;;;;;;;13.20;9.23;;;17.30;99.90;;;-141.84;91.96;18383.31;5071533;28;20263;-61
2022/06/20 07:18:44;;;;;;;10.13;8.85;;;17.20;99.90;;;-141.84;93.60;18243.16;5073267;28;20303;-63
2022/06/20 07:21:17;;;;;;;10.55;9.35;;;17.10;99.90;;;-141.84;94.52;18074.53;5072252;28;20310;-63
2022/06/20 07:24:02;;;;;;;10.63;9.15;;;17.10;99.90;;;-141.84;94.43;18076.56;5055968;28;20233;-63
2022/06/20 07:26:40;;;;;;;9.63;8.57;;;17.10;99.90;;;-141.84;94.03;18064.38;5055701;28;20257;-63
2022/06/20 07:29:17;;;;;;;11.15;9.15;;;17.00;99.90;;;-141.84;95.11;17985.16;5052397;28;20274;-63
2022/06/20 07:31:53;;;;;;;13.05;9.52;;;17.10;99.90;;;-141.84;94.09;18042.03;5054940;28;20190;-61
2022/06/20 07:34:30;;;;;;;13.85;9.38;;;17.10;99.90;;;-141.84;92.27;18257.38;5072962;28;20243;-59
2022/06/20 07:37:05;;;;;;;11.40;8.63;;;17.20;99.90;;;-141.84;89.21;18560.06;5072508;28;20663;-60
2022/06/20 07:39:41;;;;;;;10.90;8.93;;;17.30;99.90;;;-141.84;88.04;18702.28;5072692;28;20307;-59
2022/06/20 07:42:21;;;;;;;11.38;8.88;;;17.60;99.90;;;-141.84;88.45;18667.75;5055102;28;20235;-62
2022/06/20 07:44:55;;;;;;;13.38;9.60;;;17.70;99.90;;;-141.84;88.59;18645.41;5052810;28;20320;-60
2022/06/20 07:47:31;;;;;;;11.95;9.48;;;17.70;99.90;;;-141.84;91.05;18452.41;5052455;28;20332;-62
2022/06/20 07:50:05;;;;;;;11.77;10.55;;;17.70;99.90;;;-141.84;90.56;18533.66;5053298;28;20177;-63
2022/06/20 07:52:40;;;;;;;10.45;9.45;;;17.80;99.90;;;-141.84;87.08;18751.06;5052882;28;20572;-64
2022/06/20 07:55:14;;;;;;;12.23;10.20;;;17.90;99.90;;;-141.84;83.98;18905.47;5065561;28;20216;-60
2022/06/20 07:57:50;;;;;;;10.98;9.75;;;18.00;99.90;;;-141.84;83.93;18964.41;5067439;28;20248;-65
2022/06/20 08:00:22;;;;;;;10.85;9.38;;;18.00;99.90;;;-141.84;83.16;19023.34;5052300;28;20231;-62
2022/06/20 08:02:57;;;;;;;10.80;9.70;;;18.20;99.90;;;-141.84;84.39;18996.91;5052131;28;20227;-62
2022/06/20 08:05:33;;;;;;;11.63;9.60;;;18.30;99.90;;;-141.84;84.14;18950.19;5052872;28;20274;-60
2022/06/20 08:08:11;;;;;;;11.30;9.18;;;18.20;99.90;;;-141.84;85.31;18927.84;5052213;28;20200;-62
2022/06/20 08:10:45;;;;;;;13.55;10.10;;;18.10;99.90;;;-141.84;84.47;18929.88;5052723;28;20192;-59
2022/06/20 08:13:21;;;;;;;10.27;9.20;;;17.90;99.90;;;-141.84;86.00;18903.44;5067004;28;20220;-60
2022/06/20 08:16:05;;;;;;;10.80;9.80;;;17.90;99.90;;;-141.84;85.89;18881.09;5072433;28;20228;-61
2022/06/20 08:18:34;;;;;;;11.23;10.02;;;17.70;99.90;;;-141.84;87.42;18797.78;5072352;28;20255;-61
2022/06/20 08:21:12;;;;;;;11.23;10.13;;;17.70;99.90;;;-141.84;88.31;18714.50;5072091;28;20224;-64
2022/06/20 08:23:47;;;;;;;11.80;10.32;;;17.50;99.90;;;-141.84;87.60;18807.94;5072219;28;20231;-61
2022/06/20 08:26:27;;;;;;;11.55;10.35;;;17.50;99.90;;;-141.84;87.85;18696.19;5072256;28;20230;-60
2022/06/20 08:29:00;;;;;;;12.20;10.43;;;17.40;99.90;;;-141.84;89.70;18635.25;5072292;28;20211;-61
2022/06/20 08:31:33;;;;;;;12.10;10.82;;;17.40;99.90;;;-141.84;88.58;18667.75;5071777;28;20213;-62
2022/06/20 08:34:11;;;;;;;12.02;10.82;;;17.40;99.90;;;-141.84;87.77;18714.50;5071845;28;20278;-61
2022/06/20 08:36:50;;;;;;;11.70;10.55;;;17.30;99.90;;;-141.84;88.40;18677.91;5071886;28;20234;-61
2022/06/20 08:39:24;;;;;;;11.90;10.80;;;17.30;99.90;;;-141.84;86.89;18791.69;5071179;28;20224;-61
2022/06/20 08:42:34;;;;;;;12.15;10.73;;;17.40;99.90;;;-141.84;87.44;18767.31;5071534;28;20224;-61
2022/06/20 08:45:27;;;;;;;12.82;11.43;;;17.40;99.90;;;-141.84;87.27;18799.81;5071748;28;20228;-63
2022/06/20 08:48:44;;;;;;;12.60;11.30;;;17.50;99.90;;;-141.84;87.64;18759.19;5071550;28;20228;-63
2022/06/20 08:52:16;;;;;;;12.40;11.10;;;17.50;99.90;;;-141.84;87.68;18753.09;5058754;28;20232;-62
2022/06/20 08:55:32;;;;;;;12.27;11.00;;;17.40;99.90;;;-141.84;89.27;18698.22;5055075;28;20712;-61
2022/06/20 08:58:14;;;;;;;12.60;11.32;;;17.30;99.90;;;-141.84;91.55;18527.56;5071447;28;20228;-61
2022/06/20 09:00:56;;;;;;;13.18;11.98;;;17.40;99.90;;;-141.84;91.40;18470.69;5071032;28;20606;-62
2022/06/20 09:04:00;;;;;;;14.10;12.70;;;17.30;99.90;;;-141.84;90.05;18545.84;5071103;28;20223;-62
2022/06/20 09:07:07;;;;;;;15.10;13.65;;;17.30;99.90;;;-141.84;90.15;18521.47;5066478;28;20235;-61
2022/06/20 09:10:13;;;;;;;16.67;15.07;;;17.30;99.90;;;-141.84;90.42;18527.56;5071008;28;20235;-60
2022/06/20 09:13:08;;;;;;;18.02;16.23;;;17.20;99.90;;;-141.84;88.93;18623.06;5058036;28;20232;-63
2022/06/20 09:15:50;;;;;;;17.88;16.17;;;17.20;99.90;;;-141.84;90.31;18582.44;5071445;28;20224;-61
2022/06/20 09:18:39;;;;;;;17.02;15.43;;;17.30;99.90;;;-141.84;88.84;18614.94;5070913;28;20232;-66
2022/06/20 09:21:23;;;;;;;17.23;15.43;;;17.30;99.90;;;-141.84;89.04;18643.38;5070993;28;20227;-61
2022/06/20 09:24:10;;;;;;;16.33;14.73;;;17.30;99.90;;;-141.84;88.08;18710.44;5070503;28;20667;-62
2022/06/20 09:26:51;;;;;;;17.38;15.68;;;17.40;99.90;;;-141.84;88.67;18651.50;5070593;28;20228;-63
2022/06/20 09:29:49;;;;;;;16.48;14.85;;;17.40;99.90;;;-141.84;88.32;18657.59;5070374;28;20205;-66
2022/06/20 09:33:14;;;;;;;16.10;14.40;;;17.40;99.90;;;-141.84;86.22;18797.78;5070125;28;20683;-62
2022/06/20 09:36:13;;;;;;;15.35;13.90;;;17.50;99.90;;;-141.84;86.75;18787.63;5070781;28;20227;-62
2022/06/20 09:39:16;;;;;;;13.10;11.93;;;17.40;99.90;;;-141.84;86.46;18761.22;5070348;28;20228;-62
2022/06/20 09:41:59;;;;;;;13.70;12.38;;;17.40;99.90;;;-141.84;87.28;18740.91;5070097;28;20219;-61
2022/06/20 09:44:38;;;;;;;11.77;10.73;;;17.30;99.90;;;-141.84;87.85;18684.00;5070170;28;20220;-61
2022/06/20 09:47:25;;;;;;;10.20;9.20;;;17.30;99.90;;;-141.84;87.15;18712.47;5070647;28;20216;-61
2022/06/20 09:50:21;;;;;;;9.85;8.98;;;17.30;99.90;;;-141.84;89.62;18586.50;5070807;28;20235;-59
2022/06/20 09:53:05;;;;;;;9.23;8.43;;;17.20;99.90;;;-141.84;88.75;18627.13;5070464;28;20656;-60
2022/06/20 09:55:44;;;;;;;8.38;7.68;;;17.20;99.90;;;-141.84;90.54;18513.34;5070689;28;20213;-61
2022/06/20 09:58:26;;;;;;;8.65;7.82;;;17.20;99.90;;;-141.84;91.23;18454.44;5069755;28;20315;-62
2022/06/20 10:01:02;;;;;;;8.02;7.22;;;17.20;99.90;;;-141.84;90.16;18523.50;5070028;28;20274;-62
2022/06/20 10:03:41;;;;;;;7.80;7.07;;;17.20;99.90;;;-141.84;91.28;18405.66;5067507;28;20770;-61
2022/06/20 10:06:22;;;;;;;6.53;5.93;;;17.10;99.90;;;-141.84;89.88;18476.78;5070663;28;20234;-60
2022/06/20 10:09:08;;;;;;;6.93;6.13;;;17.00;99.90;;;-141.84;88.17;18631.19;5070614;28;20239;-61
2022/06/20 10:11:44;;;;;;;6.50;5.93;;;17.10;99.90;;;-141.84;89.13;18570.22;5070225;28;20224;-61
2022/06/20 10:14:27;;;;;;;6.35;5.80;;;17.00;99.90;;;-141.84;88.51;18619.00;5070445;28;20189;-61
2022/06/20 10:17:12;;;;;;;5.97;5.40;;;17.10;99.90;;;-141.84;88.65;18633.22;5071371;28;20195;-61
2022/06/20 10:19:55;;;;;;;5.50;5.00;;;17.00;99.90;;;-141.84;86.87;18702.28;5070367;28;20215;-61
2022/06/20 10:22:35;;;;;;;5.47;4.95;;;17.10;99.90;;;-141.84;86.80;18724.66;5070622;28;20224;-62
2022/06/20 10:25:33;;;;;;;5.75;5.32;;;17.10;99.90;;;-141.84;87.35;18706.38;5069851;28;20225;-60
2022/06/20 10:28:16;;;;;;;5.65;5.15;;;17.00;99.90;;;-141.84;87.69;18653.53;5069971;28;20221;-62
2022/06/20 10:30:50;;;;;;;6.22;5.70;;;17.00;99.90;;;-141.84;89.59;18564.13;5069529;28;20603;-62
2022/06/20 10:33:35;;;;;;;6.25;5.53;;;17.00;99.90;;;-141.84;88.75;18598.69;5069566;28;20636;-62
2022/06/20 10:36:21;;;;;;;6.45;5.53;;;17.00;99.90;;;-141.84;89.25;18604.78;5070093;28;20234;-61
2022/06/20 10:39:09;;;;;;;6.45;5.95;;;16.90;99.90;;;-141.84;87.63;18635.25;5069567;28;20224;-61
2022/06/20 10:41:58;;;;;;;6.97;6.28;;;16.90;99.90;;;-141.84;89.52;18539.75;5069676;28;20227;-61
2022/06/20 10:44:46;;;;;;;6.35;5.75;;;16.80;99.90;;;-141.84;89.64;18486.94;5069393;28;20646;-62
2022/06/20 10:47:27;;;;;;;7.95;6.15;;;16.70;99.90;;;-141.84;89.02;18535.69;5069928;28;20680;-60
2022/06/20 10:50:16;;;;;;;5.85;5.15;;;16.60;99.90;;;-141.84;89.76;18493.03;5070271;28;20238;-61
2022/06/20 10:53:06;;;;;;;6.68;5.82;;;16.50;99.90;;;-141.84;90.30;18428.03;5069873;28;20211;-61
2022/06/20 10:55:49;;;;;;;6.78;5.93;;;16.40;99.90;;;-141.84;91.25;18350.81;5069950;28;20696;-61